createdAt,value
2019-02-17T00:00:31.937Z,140.73
2019-02-17T00:03:05.487Z,141.90
2019-02-17T00:05:39.020Z,143.03
2019-02-17T00:08:12.493Z,125.00
2019-02-17T00:10:46.007Z,119.30
2019-02-17T00:13:21.129Z,123.43
2019-02-17T00:15:54.621Z,122.43
2019-02-17T00:18:28.131Z,112.93
2019-02-17T00:21:01.603Z,119.17
2019-02-17T00:23:39.925Z,115.83
2019-02-17T00:26:15.491Z,137.33
2019-02-17T00:28:58.913Z,117.13
2019-02-17T00:31:26.009Z,123.07
2019-02-17T00:33:59.737Z,120.40
2019-02-17T00:36:33.286Z,113.47
2019-02-17T00:39:08.506Z,114.17
2019-02-17T00:41:45.945Z,113.60
2019-02-17T00:44:21.341Z,122.20
2019-02-17T00:46:59.075Z,123.23
2019-02-17T00:49:32.632Z,125.47
2019-02-17T00:52:09.212Z,118.20
2019-02-17T00:57:46.039Z,126.17
2019-02-17T01:00:19.624Z,123.07
2019-02-17T01:02:54.624Z,128.40
2019-02-17T01:05:34.323Z,138.13
2019-02-17T01:08:03.658Z,119.30
2019-02-17T01:10:41.533Z,117.77
2019-02-17T01:13:16.705Z,133.37
2019-02-17T01:18:33.820Z,140.83
2019-02-17T01:21:09.904Z,137.47
2019-02-17T01:23:43.476Z,137.77
2019-02-17T01:26:20.015Z,137.57
2019-02-17T01:28:56.472Z,143.57
2019-02-17T01:31:35.571Z,132.30
2019-02-17T01:34:11.441Z,131.47
2019-02-17T01:36:45.184Z,135.47
2019-02-17T01:39:23.121Z,137.83
2019-02-17T01:41:58.247Z,131.10
2019-02-17T01:44:31.738Z,128.20
2019-02-17T01:47:06.900Z,130.50
2019-02-17T01:49:40.432Z,122.63
2019-02-17T01:52:15.546Z,122.30
2019-02-17T01:54:49.136Z,123.90
2019-02-17T01:57:22.692Z,128.70
2019-02-17T01:59:57.925Z,122.87
2019-02-17T02:02:31.469Z,128.77
2019-02-17T02:05:13.888Z,122.43
2019-02-17T02:07:47.412Z,129.57
2019-02-17T02:10:20.999Z,130.43
2019-02-17T02:12:56.517Z,145.47
2019-02-17T02:15:30.023Z,144.47
2019-02-17T02:18:03.484Z,144.43
2019-02-17T02:20:37.672Z,137.60
2019-02-17T02:23:11.113Z,128.97
2019-02-17T02:25:44.600Z,135.83
2019-02-17T02:28:19.678Z,122.60
2019-02-17T02:30:53.175Z,115.33
2019-02-17T02:33:26.730Z,126.70
2019-02-17T02:36:01.918Z,114.03
2019-02-17T02:38:35.364Z,120.77
2019-02-17T02:41:08.976Z,130.53
2019-02-17T02:43:42.410Z,112.53
2019-02-17T02:46:18.891Z,107.83
2019-02-17T02:48:52.397Z,112.77
2019-02-17T02:51:25.845Z,117.47
2019-02-17T02:54:04.733Z,120.37
2019-02-17T02:56:39.809Z,124.90
2019-02-17T02:59:14.995Z,121.30
2019-02-17T03:01:52.032Z,118.47
2019-02-17T03:04:45.022Z,130.33
2019-02-17T03:07:39.443Z,126.03
2019-02-17T03:10:17.461Z,110.10
2019-02-17T03:12:53.659Z,131.53
2019-02-17T03:15:28.966Z,122.03
2019-02-17T03:18:05.164Z,123.43
2019-02-17T03:20:40.981Z,132.67
2019-02-17T03:23:16.296Z,126.67
2019-02-17T03:25:49.689Z,110.77
2019-02-17T03:28:23.261Z,123.63
2019-02-17T03:31:01.016Z,130.60
2019-02-17T03:33:39.045Z,124.97
2019-02-17T03:36:12.487Z,119.83
2019-02-17T03:38:45.963Z,115.03
2019-02-17T03:41:21.090Z,110.83
2019-02-17T03:43:54.551Z,108.60
2019-02-17T03:46:31.223Z,111.57
2019-02-17T03:49:07.629Z,100.53
2019-02-17T03:51:41.174Z,98.27
2019-02-17T03:54:16.878Z,108.23
2019-02-17T03:56:50.426Z,98.20
2019-02-17T03:59:23.919Z,90.30
2019-02-17T04:01:57.407Z,86.10
2019-02-17T04:04:32.457Z,105.67
2019-02-17T04:07:05.904Z,102.93
2019-02-17T04:09:39.396Z,110.87
2019-02-17T04:12:15.910Z,109.90
2019-02-17T04:14:49.390Z,108.13
2019-02-17T04:17:25.908Z,108.60
2019-02-17T04:19:59.431Z,106.67
2019-02-17T04:22:32.937Z,103.40
2019-02-17T04:25:06.417Z,104.90
2019-02-17T04:27:39.885Z,107.93
2019-02-17T04:30:13.375Z,114.93
2019-02-17T04:32:46.952Z,104.70
2019-02-17T04:35:20.442Z,113.10
2019-02-17T04:37:53.905Z,106.27
2019-02-17T04:40:27.501Z,103.77
2019-02-17T04:43:01.068Z,116.83
2019-02-17T04:45:34.653Z,125.10
2019-02-17T04:48:08.266Z,119.73
2019-02-17T04:50:43.571Z,116.60
2019-02-17T04:53:19.860Z,124.37
2019-02-17T04:55:53.368Z,122.20
2019-02-17T04:58:29.804Z,117.67
2019-02-17T05:01:03.328Z,110.90
2019-02-17T05:03:36.824Z,111.20
2019-02-17T05:06:11.921Z,114.23
2019-02-17T05:08:45.371Z,118.73
2019-02-17T05:11:18.929Z,107.47
2019-02-17T05:13:52.381Z,124.60
2019-02-17T05:16:25.894Z,114.10
2019-02-17T05:19:04.223Z,122.03
2019-02-17T05:21:37.732Z,129.37
2019-02-17T05:24:11.260Z,114.87
2019-02-17T05:26:47.055Z,125.47
2019-02-17T05:29:20.492Z,116.27
2019-02-17T05:31:54.030Z,117.80
2019-02-17T05:34:27.452Z,127.43
2019-02-17T05:37:04.018Z,114.83
2019-02-17T05:39:37.577Z,112.30
2019-02-17T05:42:13.939Z,115.37
2019-02-17T05:44:47.457Z,127.27
2019-02-17T05:47:23.742Z,118.30
2019-02-17T05:49:59.690Z,118.13
2019-02-17T05:52:33.193Z,109.80
2019-02-17T05:55:07.128Z,103.13
2019-02-17T05:57:43.187Z,109.47
2019-02-17T06:00:19.883Z,114.10
2019-02-17T06:02:53.341Z,108.90
2019-02-17T06:05:26.832Z,126.80
2019-02-17T06:08:01.972Z,124.37
2019-02-17T06:10:35.457Z,128.93
2019-02-17T06:13:08.905Z,108.47
2019-02-17T06:15:42.395Z,117.70
2019-02-17T06:18:15.821Z,121.83
2019-02-17T06:20:49.273Z,113.30
2019-02-17T06:23:22.700Z,120.40
2019-02-17T06:25:56.178Z,103.20
2019-02-17T06:28:29.639Z,121.83
2019-02-17T06:31:13.732Z,106.83
2019-02-17T06:33:38.180Z,105.90
2019-02-17T06:36:11.697Z,108.77
2019-02-17T06:38:45.145Z,116.33
2019-02-17T06:41:18.594Z,125.53
2019-02-17T06:43:52.077Z,122.27
2019-02-17T06:46:27.235Z,127.40
2019-02-17T06:49:00.692Z,132.33
2019-02-17T06:51:34.160Z,132.17
2019-02-17T06:54:07.596Z,127.33
2019-02-17T06:56:42.704Z,126.73
2019-02-17T06:59:16.191Z,127.17
2019-02-17T07:01:49.716Z,126.30
2019-02-17T07:04:24.803Z,128.87
2019-02-17T07:06:59.929Z,140.57
2019-02-17T07:09:33.454Z,138.80
2019-02-17T07:12:06.929Z,129.87
2019-02-17T07:14:40.909Z,133.10
2019-02-17T07:17:14.978Z,140.63
2019-02-17T07:19:48.448Z,132.40
2019-02-17T07:22:21.973Z,121.30
2019-02-17T07:24:55.405Z,116.13
2019-02-17T07:27:28.904Z,126.47
2019-02-17T07:30:02.356Z,122.37
2019-02-17T07:32:40.356Z,126.63
2019-02-17T07:35:13.907Z,126.00
2019-02-17T07:37:48.018Z,123.87
2019-02-17T07:40:21.488Z,123.80
2019-02-17T07:42:54.918Z,126.77
2019-02-17T07:45:28.467Z,121.37
2019-02-17T07:48:01.945Z,123.90
2019-02-17T07:50:35.423Z,123.07
2019-02-17T07:53:09.114Z,104.17
2019-02-17T07:55:43.141Z,103.20
2019-02-17T07:58:17.619Z,107.10
2019-02-17T08:00:52.016Z,113.20
2019-02-17T08:03:27.285Z,115.27
2019-02-17T08:06:00.757Z,118.73
2019-02-17T08:08:34.232Z,103.97
2019-02-17T08:11:07.668Z,94.13
2019-02-17T08:13:41.640Z,98.37
2019-02-17T08:16:15.133Z,99.63
2019-02-17T08:18:48.742Z,102.07
2019-02-17T08:21:22.216Z,100.83
2019-02-17T08:23:56.613Z,111.40
2019-02-17T08:26:30.135Z,116.40
2019-02-17T08:29:04.290Z,119.73
2019-02-17T08:31:37.783Z,124.47
2019-02-17T08:34:11.222Z,111.67
2019-02-17T08:36:44.704Z,117.47
2019-02-17T08:39:18.158Z,116.23
2019-02-17T08:41:51.616Z,112.57
2019-02-17T08:44:25.110Z,106.00
2019-02-17T08:47:00.200Z,100.90
2019-02-17T08:49:33.656Z,100.17
2019-02-17T08:52:07.085Z,104.00
2019-02-17T08:54:40.562Z,115.33
2019-02-17T08:57:13.998Z,108.00
2019-02-17T08:59:47.478Z,108.17
2019-02-17T09:02:20.949Z,108.13
2019-02-17T09:04:54.636Z,110.13
2019-02-17T09:07:28.086Z,108.97
2019-02-17T09:10:01.605Z,100.50
2019-02-17T09:12:35.048Z,111.03
2019-02-17T09:15:12.788Z,94.50
2019-02-17T09:17:46.268Z,88.27
2019-02-17T09:20:19.747Z,96.97
2019-02-17T09:22:59.012Z,104.47
2019-02-17T09:25:32.447Z,108.23
2019-02-17T09:28:05.945Z,107.37
2019-02-17T09:30:39.414Z,110.23
2019-02-17T09:33:13.006Z,108.57
2019-02-17T09:35:46.471Z,101.40
2019-02-17T09:38:20.025Z,99.77
2019-02-17T09:40:53.441Z,109.57
2019-02-17T09:43:26.924Z,94.10
2019-02-17T09:46:00.400Z,102.57
2019-02-17T09:48:35.550Z,64.37
2019-02-17T09:51:09.001Z,90.67
2019-02-17T09:53:42.446Z,90.70
2019-02-17T09:56:15.946Z,57.17
2019-02-17T09:58:49.582Z,51.70
2019-02-17T10:01:23.066Z,45.37
2019-02-17T10:03:56.519Z,44.13
2019-02-17T10:06:29.992Z,46.27
2019-02-17T10:09:04.898Z,47.80
2019-02-17T10:11:40.892Z,46.43
2019-02-17T10:14:14.415Z,47.53
2019-02-17T10:16:47.883Z,47.17
2019-02-17T10:19:21.427Z,46.97
2019-02-17T10:21:54.978Z,47.20
2019-02-17T10:24:28.480Z,47.53
2019-02-17T10:27:01.927Z,47.53
2019-02-17T10:29:35.412Z,46.93
2019-02-17T10:32:08.929Z,45.57
2019-02-17T10:34:42.439Z,45.23
2019-02-17T10:37:15.928Z,44.67
2019-02-17T10:39:49.429Z,44.00
2019-02-17T10:42:22.889Z,44.47
2019-02-17T10:44:56.379Z,41.00
2019-02-17T10:47:29.835Z,36.93
2019-02-17T10:50:03.587Z,35.60
2019-02-17T10:52:37.049Z,38.87
2019-02-17T10:55:12.073Z,41.13
2019-02-17T10:57:45.591Z,37.43
2019-02-17T11:00:21.951Z,35.60
2019-02-17T11:02:55.393Z,37.63
2019-02-17T11:05:28.974Z,35.90
2019-02-17T11:08:02.410Z,37.27
2019-02-17T11:10:35.935Z,39.43
2019-02-17T11:13:09.759Z,41.27
2019-02-17T11:15:43.221Z,35.77
2019-02-17T11:18:16.728Z,34.03
2019-02-17T11:20:50.165Z,35.77
2019-02-17T11:23:23.645Z,29.60
2019-02-17T11:25:57.123Z,36.93
2019-02-17T11:28:30.570Z,35.47
2019-02-17T11:31:05.641Z,37.13
2019-02-17T11:33:39.501Z,38.20
2019-02-17T11:36:13.358Z,36.03
2019-02-17T11:38:47.091Z,38.70
2019-02-17T11:41:20.789Z,39.17
2019-02-17T11:43:54.445Z,43.47
2019-02-17T11:46:28.671Z,39.87
2019-02-17T11:49:02.322Z,38.73
2019-02-17T11:51:36.880Z,34.83
2019-02-17T11:54:10.641Z,41.47
2019-02-17T11:56:44.107Z,35.67
2019-02-17T11:59:17.545Z,34.40
2019-02-17T12:01:51.195Z,37.73
2019-02-17T12:04:24.941Z,36.30
2019-02-17T12:07:00.299Z,36.63
2019-02-17T12:09:33.595Z,43.13
2019-02-17T12:12:07.033Z,39.77
2019-02-17T12:14:40.663Z,32.63
2019-02-17T12:17:14.186Z,38.73
2019-02-17T12:19:47.645Z,41.50
2019-02-17T12:22:22.984Z,40.40
2019-02-17T12:24:58.299Z,39.27
2019-02-17T12:27:36.357Z,39.87
2019-02-17T12:30:10.700Z,36.10
2019-02-17T12:32:44.151Z,42.40
2019-02-17T12:35:17.670Z,42.57
2019-02-17T12:37:51.135Z,41.83
2019-02-17T12:40:24.571Z,39.97
2019-02-17T12:42:58.237Z,40.73
2019-02-17T12:45:31.950Z,37.80
2019-02-17T12:48:05.474Z,40.67
2019-02-17T12:50:39.355Z,35.10
2019-02-17T12:53:13.122Z,31.40
2019-02-17T12:55:47.007Z,34.43
2019-02-17T12:58:29.620Z,36.17
2019-02-17T13:00:56.249Z,31.77
2019-02-17T13:03:30.089Z,41.20
2019-02-17T13:06:05.513Z,42.03
2019-02-17T13:08:39.455Z,31.27
2019-02-17T13:11:14.271Z,31.60
2019-02-17T13:13:50.225Z,34.20
2019-02-17T13:16:24.494Z,34.83
2019-02-17T13:18:58.326Z,32.80
2019-02-17T13:21:32.751Z,36.50
2019-02-17T13:24:06.550Z,37.30
2019-02-17T13:26:40.280Z,38.57
2019-02-17T13:29:14.125Z,39.10
2019-02-17T13:31:48.016Z,35.43
2019-02-17T13:34:21.831Z,41.43
2019-02-17T13:36:55.505Z,34.77
2019-02-17T13:39:29.977Z,36.10
2019-02-17T13:42:03.431Z,31.50
2019-02-17T13:44:36.982Z,28.67
2019-02-17T13:47:10.394Z,31.03
2019-02-17T13:49:43.931Z,36.03
2019-02-17T13:52:17.430Z,28.83
2019-02-17T13:54:51.154Z,32.47
2019-02-17T13:57:24.996Z,37.23
2019-02-17T13:59:58.726Z,33.03
2019-02-17T14:02:32.440Z,32.90
2019-02-17T14:05:07.101Z,29.33
2019-02-17T14:07:40.766Z,29.50
2019-02-17T14:10:14.721Z,27.87
2019-02-17T14:12:48.198Z,28.03
2019-02-17T14:15:22.219Z,27.60
2019-02-17T14:18:13.907Z,25.13
2019-02-17T14:20:48.177Z,29.03
2019-02-17T14:23:21.859Z,26.33
2019-02-17T14:25:55.515Z,28.37
2019-02-17T14:28:30.645Z,30.50
2019-02-17T14:31:04.114Z,27.20
2019-02-17T14:33:37.637Z,29.90
2019-02-17T14:36:11.176Z,28.33
2019-02-17T14:38:45.027Z,24.90
2019-02-17T14:41:18.733Z,26.57
2019-02-17T14:43:52.388Z,28.60
2019-02-17T14:46:26.094Z,30.87
2019-02-17T14:48:59.767Z,25.33
2019-02-17T14:51:33.535Z,26.70
2019-02-17T14:54:07.178Z,25.70
2019-02-17T14:56:40.756Z,26.23
2019-02-17T14:59:15.638Z,24.80
2019-02-17T15:01:49.117Z,26.87
2019-02-17T15:04:22.982Z,26.37
2019-02-17T15:06:56.662Z,25.30
2019-02-17T15:09:32.100Z,27.40
2019-02-17T15:12:05.899Z,28.47
2019-02-17T15:14:40.033Z,25.23
2019-02-17T15:17:14.837Z,23.87
2019-02-17T15:19:48.686Z,27.33
2019-02-17T15:22:22.418Z,28.57
2019-02-17T15:24:58.752Z,29.20
2019-02-17T15:27:32.500Z,28.53
2019-02-17T15:30:13.429Z,28.60
2019-02-17T15:32:47.145Z,31.67
2019-02-17T15:35:23.405Z,27.40
2019-02-17T15:37:58.000Z,31.37
2019-02-17T15:40:32.094Z,26.47
2019-02-17T15:43:05.941Z,27.13
2019-02-17T15:45:40.899Z,25.43
2019-02-17T15:48:14.741Z,26.23
2019-02-17T15:50:50.099Z,27.80
2019-02-17T15:53:27.064Z,27.17
2019-02-17T15:56:00.927Z,28.43
2019-02-17T15:58:34.748Z,29.10
2019-02-17T16:01:19.139Z,30.30
2019-02-17T16:03:52.948Z,29.17
2019-02-17T16:06:28.471Z,28.43
2019-02-17T16:09:04.396Z,29.27
2019-02-17T16:11:40.687Z,27.90
2019-02-17T16:14:15.993Z,32.90
2019-02-17T16:16:50.018Z,35.87
2019-02-17T16:19:26.492Z,35.13
2019-02-17T16:22:01.323Z,31.30
2019-02-17T16:24:35.089Z,32.73
2019-02-17T16:27:10.091Z,34.10
2019-02-17T16:29:45.443Z,44.67
2019-02-17T16:32:19.189Z,39.30
2019-02-17T16:34:54.735Z,39.33
2019-02-17T16:37:28.184Z,43.63
2019-02-17T16:40:03.035Z,49.30
2019-02-17T16:42:36.617Z,59.43
2019-02-17T16:45:14.795Z,63.70
2019-02-17T16:47:48.366Z,67.37
2019-02-17T16:50:23.356Z,62.90
2019-02-17T16:52:56.861Z,69.80
2019-02-17T16:55:30.454Z,83.47
2019-02-17T16:58:03.957Z,71.07
2019-02-17T17:00:37.515Z,74.97
2019-02-17T17:03:11.179Z,76.83
2019-02-17T17:05:44.707Z,80.23
2019-02-17T17:08:18.190Z,74.80
2019-02-17T17:10:52.806Z,75.47
2019-02-17T17:13:26.229Z,86.73
2019-02-17T17:16:02.522Z,80.27
2019-02-17T17:18:35.979Z,82.40
2019-02-17T17:21:09.476Z,103.80
2019-02-17T17:23:42.968Z,88.40
2019-02-17T17:26:18.486Z,85.63
2019-02-17T17:28:52.062Z,94.00
2019-02-17T17:31:25.531Z,95.07
2019-02-17T17:33:59.004Z,99.77
2019-02-17T17:36:32.483Z,103.63
2019-02-17T17:39:06.154Z,100.73
2019-02-17T17:41:39.665Z,87.03
2019-02-17T17:44:13.140Z,85.03
2019-02-17T17:46:46.593Z,97.10
2019-02-17T17:49:21.590Z,99.03
2019-02-17T17:51:55.212Z,95.87
2019-02-17T17:54:28.751Z,96.53
2019-02-17T17:57:02.388Z,99.50
2019-02-17T17:59:35.930Z,100.77
2019-02-17T18:02:09.571Z,100.87
2019-02-17T18:04:43.505Z,98.17
2019-02-17T18:07:16.923Z,104.90
2019-02-17T18:09:50.485Z,109.37
2019-02-17T18:12:24.926Z,101.57
2019-02-17T18:14:58.419Z,106.20
2019-02-17T18:17:31.849Z,103.97
2019-02-17T18:20:08.531Z,108.30
2019-02-17T18:22:42.023Z,107.33
2019-02-17T18:25:15.582Z,101.30
2019-02-17T18:27:49.047Z,104.47
2019-02-17T18:30:22.536Z,110.73
2019-02-17T18:32:56.393Z,124.50
2019-02-17T18:35:30.731Z,134.00
2019-02-17T18:38:04.213Z,110.47
2019-02-17T18:40:44.696Z,122.10
2019-02-17T18:43:12.868Z,119.20
2019-02-17T18:45:46.320Z,113.07
2019-02-17T18:48:19.910Z,101.03
2019-02-17T18:50:59.126Z,119.37
2019-02-17T18:53:28.486Z,128.17
2019-02-17T18:56:01.945Z,114.03
2019-02-17T18:58:41.164Z,101.07
2019-02-17T19:01:16.263Z,118.17
2019-02-17T19:03:49.736Z,137.60
2019-02-17T19:06:24.676Z,146.07
2019-02-17T19:08:58.206Z,122.07
2019-02-17T19:11:31.713Z,118.77
2019-02-17T19:14:05.156Z,125.27
2019-02-17T19:16:42.079Z,138.07
2019-02-17T19:19:15.792Z,139.27
2019-02-17T19:21:49.332Z,158.43
2019-02-17T19:24:22.802Z,162.30
2019-02-17T19:26:56.266Z,154.50
2019-02-17T19:29:29.718Z,144.43
2019-02-17T19:32:03.228Z,144.83
2019-02-17T19:34:36.677Z,133.97
2019-02-17T19:37:10.156Z,123.80
2019-02-17T19:39:43.616Z,105.80
2019-02-17T19:42:17.850Z,79.77
2019-02-17T19:44:52.328Z,83.03
2019-02-17T19:47:25.775Z,80.57
2019-02-17T19:49:59.602Z,78.77
2019-02-17T19:52:33.100Z,80.73
2019-02-17T19:55:08.112Z,85.30
2019-02-17T19:57:42.693Z,89.63
2019-02-17T20:00:21.187Z,89.07
2019-02-17T20:03:02.768Z,82.63
2019-02-17T20:05:51.751Z,82.07
2019-02-17T20:08:19.101Z,86.20
2019-02-17T20:10:52.561Z,93.97
2019-02-17T20:13:26.032Z,98.13
2019-02-17T20:16:03.079Z,96.93
2019-02-17T20:18:37.123Z,88.17
2019-02-17T20:21:10.575Z,93.50
2019-02-17T20:23:45.674Z,89.03
2019-02-17T20:26:19.129Z,86.60
2019-02-17T20:28:57.294Z,90.27
2019-02-17T20:31:27.977Z,87.43
2019-02-17T20:34:01.416Z,79.50
2019-02-17T20:36:34.918Z,92.20
2019-02-17T20:39:08.677Z,101.60
2019-02-17T20:41:43.556Z,96.80
2019-02-17T20:44:17.049Z,88.37
2019-02-17T20:46:50.480Z,84.47
2019-02-17T20:49:25.097Z,82.23
2019-02-17T20:51:58.844Z,84.90
2019-02-17T20:54:32.278Z,82.60
2019-02-17T20:57:05.821Z,72.37
2019-02-17T20:59:39.289Z,74.63
2019-02-17T21:02:12.774Z,74.87
2019-02-17T21:04:49.124Z,81.23
2019-02-17T21:07:22.616Z,89.80
2019-02-17T21:09:56.495Z,84.43
2019-02-17T21:12:29.905Z,85.07
2019-02-17T21:15:03.391Z,80.67
2019-02-17T21:17:39.907Z,85.60
2019-02-17T21:20:13.828Z,79.17
2019-02-17T21:22:47.321Z,77.60
2019-02-17T21:25:20.757Z,80.90
2019-02-17T21:27:54.239Z,73.87
2019-02-17T21:30:27.675Z,70.63
2019-02-17T21:33:01.161Z,71.03
2019-02-17T21:35:35.784Z,71.20
2019-02-17T21:38:09.264Z,72.37
2019-02-17T21:40:43.868Z,81.27
2019-02-17T21:43:17.307Z,80.47
2019-02-17T21:45:50.814Z,80.23
2019-02-17T21:48:24.241Z,90.30
2019-02-17T21:50:58.997Z,87.37
2019-02-17T21:53:32.408Z,84.10
2019-02-17T21:56:05.922Z,106.50
2019-02-17T21:58:39.346Z,94.20
2019-02-17T22:01:14.263Z,105.57
2019-02-17T22:03:51.287Z,104.97
2019-02-17T22:06:33.189Z,126.17
2019-02-17T22:09:04.411Z,147.17
2019-02-17T22:11:41.098Z,152.97
2019-02-17T22:14:21.701Z,162.70
2019-02-17T22:16:55.245Z,137.60
2019-02-17T22:22:27.127Z,130.53
2019-02-17T22:25:00.694Z,124.20
2019-02-17T22:27:34.189Z,136.17
2019-02-17T22:30:12.613Z,151.57
2019-02-17T22:32:47.833Z,149.03
2019-02-17T22:35:26.513Z,141.80
2019-02-17T22:38:00.067Z,140.40
2019-02-17T22:40:33.749Z,134.10
2019-02-17T22:43:09.041Z,140.20
2019-02-17T22:45:42.640Z,123.77
2019-02-17T22:48:16.409Z,119.70
2019-02-17T22:50:49.956Z,127.37
2019-02-17T22:53:26.298Z,136.70
2019-02-17T22:55:59.970Z,123.93
2019-02-17T22:58:33.702Z,147.13
2019-02-17T23:01:09.329Z,134.83
2019-02-17T23:03:44.533Z,136.73
2019-02-17T23:06:22.296Z,150.67
2019-02-17T23:09:02.638Z,154.57
2019-02-17T23:11:45.134Z,139.83
2019-02-17T23:14:19.390Z,145.67
2019-02-17T23:16:57.293Z,134.80
2019-02-17T23:19:40.688Z,130.60
2019-02-17T23:22:22.041Z,126.20
2019-02-17T23:25:04.540Z,123.23
2019-02-17T23:27:45.492Z,120.50
2019-02-17T23:30:19.774Z,118.40
2019-02-17T23:33:02.931Z,124.70
2019-02-17T23:35:36.482Z,124.53
2019-02-17T23:38:11.851Z,122.97
2019-02-17T23:40:47.733Z,128.63
2019-02-17T23:43:25.824Z,140.67
2019-02-17T23:45:59.444Z,131.83
2019-02-17T23:48:34.499Z,133.60
2019-02-17T23:51:07.976Z,120.33
2019-02-17T23:53:42.813Z,106.57
2019-02-17T23:56:24.601Z,101.37
2019-02-17T23:58:58.064Z,92.93
